Time;durP1;ratioP1;P1;durP2;ratioP2;P2;SDS_P1;SDS_P2;PMS_P1;PMS_P2;Temp;Humidity;BMP_temperature;BMP_pressure;BME280_temperature;BME280_humidity;BME280_pressure;Samples;Min_cycle;Max_cycle;Signal;HPM_P1;HPM_P2
2022/12/08 00:00:12;;;;;;;;;;;5.90;99.90;;;;;;5032688;28;19926;-63
2022/12/08 00:02:43;;;;;;;;;;;6.10;99.90;;;;;;5034004;28;19951;-63
2022/12/08 00:10:42;;;;;;;;;;;6.50;99.90;;;;;;5020930;28;19925;-64
2022/12/08 00:13:17;;;;;;;;;;;6.30;99.90;;;;;;5033234;28;19932;-64
2022/12/08 00:15:44;;;;;;;;;;;6.20;99.90;;;;;;5033532;28;19929;-64
2022/12/08 00:18:12;;;;;;;;;;;6.30;99.90;;;;;;5033637;28;20403;-63
2022/12/08 00:20:40;;;;;;;;;;;6.10;99.90;;;;;;5032882;28;19931;-64
2022/12/08 00:23:09;;;;;;;;;;;6.00;99.90;;;;;;5033552;28;19925;-64
2022/12/08 00:25:37;;;;;;;;;;;5.90;99.90;;;;;;5033700;28;19929;-63
2022/12/08 00:28:04;;;;;;;;;;;5.80;99.90;;;;;;5033327;28;20458;-64
2022/12/08 00:30:32;;;;;;;;;;;5.60;99.90;;;;;;5032397;28;19940;-64
2022/12/08 00:33:00;;;;;;;;;;;5.70;99.90;;;;;;5033508;28;19932;-64
2022/12/08 00:35:28;;;;;;;;;;;5.60;99.90;;;;;;5033193;28;20417;-64
2022/12/08 00:37:55;;;;;;;;;;;5.50;99.90;;;;;;5033340;28;20310;-64
2022/12/08 00:40:29;;;;;;;;;;;5.50;99.90;;;;;;5032561;28;19925;-64
2022/12/08 00:42:56;;;;;;;;;;;5.60;99.90;;;;;;5032955;28;19939;-64
2022/12/08 00:45:24;;;;;;;;;;;5.60;99.90;;;;;;5033018;28;19936;-64
2022/12/08 00:47:52;;;;;;;;;;;5.70;99.90;;;;;;5033326;28;19925;-63
2022/12/08 00:50:19;;;;;;;;;;;5.90;99.90;;;;;;5032148;28;20020;-64
2022/12/08 00:52:47;;;;;;;;;;;5.90;99.90;;;;;;5033168;28;19925;-64
2022/12/08 00:55:15;;;;;;;;;;;6.10;99.90;;;;;;5032870;28;19929;-63
2022/12/08 00:57:44;;;;;;;;;;;6.10;99.90;;;;;;5032919;28;19932;-63
2022/12/08 01:00:12;;;;;;;;;;;6.10;99.90;;;;;;5032137;28;20309;-64
2022/12/08 01:02:40;;;;;;;;;;;6.10;99.90;;;;;;5032744;28;19929;-65
2022/12/08 01:05:08;;;;;;;;;;;6.20;99.90;;;;;;5033016;28;19936;-64
2022/12/08 01:07:36;;;;;;;;;;;6.30;99.90;;;;;;5032760;28;19951;-64
2022/12/08 01:10:04;;;;;;;;;;;6.40;99.90;;;;;;5032185;28;19931;-63
2022/12/08 01:12:32;;;;;;;;;;;6.50;99.90;;;;;;5032200;28;19925;-63
2022/12/08 01:15:01;;;;;;;;;;;6.50;99.90;;;;;;5030685;28;19931;-65
2022/12/08 01:17:29;;;;;;;;;;;6.20;99.90;;;;;;5031624;28;19952;-66
2022/12/08 01:19:57;;;;;;;;;;;6.20;99.90;;;;;;5032013;28;19926;-66
2022/12/08 01:22:25;;;;;;;;;;;6.20;99.90;;;;;;5032528;28;19935;-63
2022/12/08 01:24:52;;;;;;;;;;;6.20;99.90;;;;;;5032343;28;20011;-63
2022/12/08 01:27:20;;;;;;;;;;;6.20;99.90;;;;;;5032527;28;20019;-63
2022/12/08 01:29:48;;;;;;;;;;;6.20;99.90;;;;;;5031051;28;20348;-64
2022/12/08 01:32:17;;;;;;;;;;;6.30;99.90;;;;;;5032268;28;19929;-64
2022/12/08 01:34:45;;;;;;;;;;;6.30;99.90;;;;;;5032349;28;19929;-64
2022/12/08 01:37:13;;;;;;;;;;;6.30;99.90;;;;;;5032315;28;19929;-63
2022/12/08 01:39:40;;;;;;;;;;;6.30;99.90;;;;;;5031275;28;20577;-63
2022/12/08 01:42:18;;;;;;;;;;;6.40;99.90;;;;;;5031962;28;19932;-64
2022/12/08 01:44:56;;;;;;;;;;;6.30;99.90;;;;;;5031858;28;19925;-63
2022/12/08 01:47:29;;;;;;;;;;;6.30;99.90;;;;;;5032055;28;20016;-63
2022/12/08 01:49:56;;;;;;;;;;;6.20;99.90;;;;;;5031229;28;19940;-63
2022/12/08 01:52:26;;;;;;;;;;;6.10;99.90;;;;;;5031901;28;19924;-63
2022/12/08 01:54:58;;;;;;;;;;;6.10;99.90;;;;;;5030986;28;22411;-63
2022/12/08 01:57:27;;;;;;;;;;;6.10;99.90;;;;;;5031921;28;20528;-65
2022/12/08 02:00:00;;;;;;;;;;;6.10;99.90;;;;;;5030892;28;19929;-63
2022/12/08 02:02:34;;;;;;;;;;;6.20;99.90;;;;;;5031755;28;19925;-64
2022/12/08 02:05:02;;;;;;;;;;;6.10;99.90;;;;;;5031958;28;19939;-62
2022/12/08 02:07:30;;;;;;;;;;;6.00;99.90;;;;;;5031677;28;19940;-63
2022/12/08 02:09:58;;;;;;;;;;;5.80;99.90;;;;;;5030726;28;20101;-63
2022/12/08 02:12:25;;;;;;;;;;;5.90;99.90;;;;;;5031632;28;20032;-66
2022/12/08 02:14:53;;;;;;;;;;;6.00;99.90;;;;;;5031478;28;19925;-64
2022/12/08 02:17:32;;;;;;;;;;;6.10;99.90;;;;;;5031427;28;19959;-64
2022/12/08 02:20:27;;;;;;;;;;;6.20;99.90;;;;;;5030754;28;19925;-63
2022/12/08 02:23:00;;;;;;;;;;;6.10;99.90;;;;;;5031452;28;20418;-63
2022/12/08 02:25:33;;;;;;;;;;;6.00;99.90;;;;;;5031255;28;19934;-64
2022/12/08 02:28:10;;;;;;;;;;;5.80;99.90;;;;;;5031702;28;19925;-64
2022/12/08 02:30:45;;;;;;;;;;;5.80;99.90;;;;;;5030326;28;19932;-63
2022/12/08 02:33:24;;;;;;;;;;;5.90;99.90;;;;;;5013577;28;20371;-63
2022/12/08 02:35:59;;;;;;;;;;;6.00;99.90;;;;;;5031658;28;19937;-63
2022/12/08 02:38:33;;;;;;;;;;;6.10;99.90;;;;;;5031364;28;19926;-63
2022/12/08 02:41:04;;;;;;;;;;;6.20;99.90;;;;;;5030535;28;20293;-64
2022/12/08 02:43:35;;;;;;;;;;;6.20;99.90;;;;;;5031378;28;19940;-65
2022/12/08 02:46:05;;;;;;;;;;;6.30;99.90;;;;;;5031348;28;19925;-65
2022/12/08 02:48:33;;;;;;;;;;;6.20;99.90;;;;;;5031116;28;20403;-65
2022/12/08 02:51:02;;;;;;;;;;;6.20;99.90;;;;;;5030566;28;19925;-63
2022/12/08 02:53:31;;;;;;;;;;;6.30;99.90;;;;;;5030712;28;20413;-66
2022/12/08 02:56:03;;;;;;;;;;;6.30;99.90;;;;;;5030308;28;19931;-64
2022/12/08 02:58:48;;;;;;;;;;;6.30;99.90;;;;;;5031412;28;20416;-63
2022/12/08 03:01:26;;;;;;;;;;;6.20;99.90;;;;;;5030613;28;19947;-64
2022/12/08 03:03:59;;;;;;;;;;;6.00;99.90;;;;;;5031225;28;19929;-64
2022/12/08 03:06:31;;;;;;;;;;;6.00;99.90;;;;;;5031351;28;19925;-66
2022/12/08 03:09:00;;;;;;;;;;;6.20;99.90;;;;;;5030768;28;20394;-66
2022/12/08 03:11:31;;;;;;;;;;;6.00;99.90;;;;;;5030480;28;19929;-66
2022/12/08 03:14:00;;;;;;;;;;;5.90;99.90;;;;;;5030926;28;20027;-66
2022/12/08 03:16:29;;;;;;;;;;;6.00;99.90;;;;;;5031135;28;19931;-64
2022/12/08 03:19:00;;;;;;;;;;;6.00;99.90;;;;;;5031062;28;19975;-65
2022/12/08 03:21:29;;;;;;;;;;;5.90;99.90;;;;;;5030403;28;19936;-65
2022/12/08 03:23:57;;;;;;;;;;;5.70;99.90;;;;;;5030551;28;19929;-65
2022/12/08 03:26:27;;;;;;;;;;;5.60;99.90;;;;;;5031083;28;19925;-66
2022/12/08 03:28:55;;;;;;;;;;;5.60;99.90;;;;;;5030936;28;20347;-65
2022/12/08 03:31:24;;;;;;;;;;;5.60;99.90;;;;;;5030304;28;19926;-65
2022/12/08 03:33:54;;;;;;;;;;;5.60;99.90;;;;;;5030963;28;19929;-66
2022/12/08 03:36:23;;;;;;;;;;;5.40;99.90;;;;;;5030863;28;19929;-65
2022/12/08 03:38:52;;;;;;;;;;;5.50;99.90;;;;;;5027826;28;19967;-65
2022/12/08 03:41:21;;;;;;;;;;;5.50;99.90;;;;;;5031775;28;20011;-66
2022/12/08 03:43:49;;;;;;;;;;;5.50;99.90;;;;;;5034235;28;19931;-66
2022/12/08 03:46:17;;;;;;;;;;;5.60;99.90;;;;;;5034151;28;19971;-65
2022/12/08 03:48:45;;;;;;;;;;;5.60;99.90;;;;;;5034118;28;19929;-66
2022/12/08 03:51:13;;;;;;;;;;;5.50;99.90;;;;;;5033692;28;19925;-65
2022/12/08 03:53:41;;;;;;;;;;;5.50;99.90;;;;;;5034065;28;19925;-64
2022/12/08 03:56:16;;;;;;;;;;;5.60;99.90;;;;;;5034451;28;20297;-64
2022/12/08 03:58:44;;;;;;;;;;;5.80;99.90;;;;;;5034049;28;19930;-65
2022/12/08 04:01:12;;;;;;;;;;;5.90;99.90;;;;;;5033143;28;19925;-65
2022/12/08 04:03:40;;;;;;;;;;;6.10;99.90;;;;;;5033963;28;19925;-65
2022/12/08 04:06:07;;;;;;;;;;;6.20;99.90;;;;;;5033923;28;19929;-66
2022/12/08 04:08:35;;;;;;;;;;;6.30;99.90;;;;;;5033924;28;19925;-66
2022/12/08 04:11:05;;;;;;;;;;;6.20;99.90;;;;;;5033621;28;20284;-64
2022/12/08 04:13:34;;;;;;;;;;;6.20;99.90;;;;;;5033413;28;19939;-64
2022/12/08 04:16:02;;;;;;;;;;;6.20;99.90;;;;;;5033178;28;19925;-63
2022/12/08 04:18:30;;;;;;;;;;;6.30;99.90;;;;;;5033642;28;19979;-65
2022/12/08 04:20:58;;;;;;;;;;;6.30;99.90;;;;;;5033054;28;20390;-65
2022/12/08 04:23:26;;;;;;;;;;;6.00;99.90;;;;;;5033576;28;19932;-66
2022/12/08 04:26:04;;;;;;;;;;;6.00;99.90;;;;;;5034982;28;20314;-68
2022/12/08 04:28:33;;;;;;;;;;;5.90;99.90;;;;;;5011723;28;19933;-62
2022/12/08 04:31:02;;;;;;;;;;;5.60;99.90;;;;;;4999483;28;19932;-62
2022/12/08 04:33:30;;;;;;;;;;;5.70;99.90;;;;;;5013165;28;20016;-62
2022/12/08 04:35:57;;;;;;;;;;;5.70;99.90;;;;;;5014333;28;19926;-61
2022/12/08 04:38:25;;;;;;;;;;;5.60;99.90;;;;;;5033444;28;20405;-62
2022/12/08 04:40:53;;;;;;;;;;;5.30;99.90;;;;;;5032732;28;19961;-62
2022/12/08 04:43:21;;;;;;;;;;;5.50;99.90;;;;;;5031206;28;19935;-62
2022/12/08 04:45:50;;;;;;;;;;;5.20;99.90;;;;;;5027074;28;20019;-62
2022/12/08 04:48:18;;;;;;;;;;;5.10;99.90;;;;;;5031820;28;19925;-62
2022/12/08 04:50:46;;;;;;;;;;;4.90;99.90;;;;;;5031521;28;19925;-62
2022/12/08 04:53:14;;;;;;;;;;;5.00;99.90;;;;;;5032104;28;20012;-62
2022/12/08 04:55:43;;;;;;;;;;;4.90;99.90;;;;;;5033258;28;19932;-62
2022/12/08 04:58:12;;;;;;;;;;;4.90;99.90;;;;;;5033032;28;20366;-62
2022/12/08 05:00:39;;;;;;;;;;;4.80;99.90;;;;;;5032094;28;19940;-62
2022/12/08 05:03:09;;;;;;;;;;;4.60;99.90;;;;;;5032899;28;19925;-61
2022/12/08 05:05:37;;;;;;;;;;;4.50;99.90;;;;;;5032168;28;19925;-61
2022/12/08 05:08:05;;;;;;;;;;;4.40;99.90;;;;;;5033047;28;19932;-62
2022/12/08 05:10:32;;;;;;;;;;;4.10;99.90;;;;;;5032236;28;20019;-62
2022/12/08 05:13:00;;;;;;;;;;;4.20;99.90;;;;;;5032615;28;19932;-62
2022/12/08 05:15:28;;;;;;;;;;;4.20;99.90;;;;;;5032281;28;19925;-62
2022/12/08 05:17:56;;;;;;;;;;;4.30;99.90;;;;;;5024093;28;20015;-62
2022/12/08 05:20:25;;;;;;;;;;;4.30;99.90;;;;;;5031621;28;19932;-62
2022/12/08 05:22:52;;;;;;;;;;;4.30;99.90;;;;;;5031331;28;19926;-62
2022/12/08 05:25:20;;;;;;;;;;;4.30;99.90;;;;;;5029337;28;19939;-62
2022/12/08 05:27:48;;;;;;;;;;;4.30;99.90;;;;;;5021367;28;20306;-61
2022/12/08 05:30:16;;;;;;;;;;;4.20;99.90;;;;;;5017802;28;19941;-62
2022/12/08 05:32:44;;;;;;;;;;;4.30;99.90;;;;;;5031333;28;19932;-62
2022/12/08 05:35:11;;;;;;;;;;;4.40;99.90;;;;;;5032154;28;19932;-62
2022/12/08 05:37:40;;;;;;;;;;;4.40;99.90;;;;;;5027205;28;19925;-62
2022/12/08 05:40:08;;;;;;;;;;;4.30;99.90;;;;;;5024933;28;19960;-62
2022/12/08 05:42:36;;;;;;;;;;;4.30;99.90;;;;;;5030417;28;20413;-62
2022/12/08 05:45:04;;;;;;;;;;;4.50;99.90;;;;;;5025073;28;20415;-62
2022/12/08 05:47:32;;;;;;;;;;;4.60;99.90;;;;;;5021879;28;20024;-62
2022/12/08 05:50:03;;;;;;;;;;;4.80;99.90;;;;;;5015033;28;20032;-62
2022/12/08 05:52:31;;;;;;;;;;;5.00;99.90;;;;;;5020973;28;19973;-62
2022/12/08 05:55:00;;;;;;;;;;;5.30;99.90;;;;;;5017636;28;20016;-62
2022/12/08 05:57:28;;;;;;;;;;;5.40;99.90;;;;;;5009830;28;19952;-61
2022/12/08 05:59:58;;;;;;;;;;;5.30;99.90;;;;;;5008286;28;19933;-62
2022/12/08 06:02:26;;;;;;;;;;;5.10;99.90;;;;;;5003032;28;19933;-63
2022/12/08 06:04:53;;;;;;;;;;;4.90;99.90;;;;;;5003125;28;20494;-63
2022/12/08 06:07:21;;;;;;;;;;;4.80;99.90;;;;;;5002973;28;19925;-62
2022/12/08 06:09:49;;;;;;;;;;;4.60;99.90;;;;;;5006245;28;20306;-62
2022/12/08 06:12:18;;;;;;;;;;;4.40;99.90;;;;;;5015068;28;20015;-61
2022/12/08 06:14:46;;;;;;;;;;;4.30;99.90;;;;;;5007969;28;19925;-62
2022/12/08 06:17:13;;;;;;;;;;;4.30;99.90;;;;;;5003736;28;19935;-62
2022/12/08 06:19:42;;;;;;;;;;;4.30;99.90;;;;;;5011258;28;21293;-62
2022/12/08 06:22:09;;;;;;;;;;;4.20;99.90;;;;;;5003664;28;20044;-62
2022/12/08 06:24:37;;;;;;;;;;;4.20;99.90;;;;;;5011312;28;19933;-61
2022/12/08 06:27:05;;;;;;;;;;;4.20;99.90;;;;;;5002442;28;19934;-62
2022/12/08 06:29:34;;;;;;;;;;;4.10;99.90;;;;;;5003409;28;19934;-62
2022/12/08 06:32:01;;;;;;;;;;;4.20;99.90;;;;;;5005880;28;19929;-63
2022/12/08 06:34:29;;;;;;;;;;;4.10;99.90;;;;;;5003347;28;20531;-62
2022/12/08 06:36:57;;;;;;;;;;;4.00;99.90;;;;;;5002475;28;20528;-62
2022/12/08 06:39:25;;;;;;;;;;;4.00;99.90;;;;;;5003164;28;20623;-62
2022/12/08 06:44:40;;;;;;;;;;;4.00;99.90;;;;;;5009560;28;19952;-61
2022/12/08 06:47:07;;;;;;;;;;;4.00;99.90;;;;;;5002637;28;19933;-62
2022/12/08 06:49:35;;;;;;;;;;;4.10;99.90;;;;;;5002988;28;19934;-61
2022/12/08 06:52:03;;;;;;;;;;;4.00;99.90;;;;;;5009171;28;19934;-62
2022/12/08 06:54:31;;;;;;;;;;;4.00;99.90;;;;;;5009343;28;19933;-63
2022/12/08 06:56:58;;;;;;;;;;;4.00;99.90;;;;;;5004088;28;20034;-63
2022/12/08 06:59:26;;;;;;;;;;;4.00;99.90;;;;;;5002682;28;19943;-63
2022/12/08 07:01:56;;;;;;;;;;;4.00;99.90;;;;;;5007830;28;19933;-63
2022/12/08 07:04:23;;;;;;;;;;;4.00;99.90;;;;;;5003623;28;20065;-64
2022/12/08 07:06:51;;;;;;;;;;;3.90;99.90;;;;;;5002590;28;19925;-64
2022/12/08 07:09:19;;;;;;;;;;;3.90;99.90;;;;;;5008694;28;20306;-62
2022/12/08 07:11:46;;;;;;;;;;;4.00;99.90;;;;;;5002263;28;19936;-62
2022/12/08 07:14:14;;;;;;;;;;;4.00;99.90;;;;;;5008980;28;20330;-63
2022/12/08 07:16:42;;;;;;;;;;;3.90;99.90;;;;;;5004526;28;19933;-61
2022/12/08 07:19:12;;;;;;;;;;;3.90;99.90;;;;;;5009433;28;20028;-62
2022/12/08 07:21:39;;;;;;;;;;;3.90;99.90;;;;;;5008259;28;19933;-63
2022/12/08 07:24:07;;;;;;;;;;;3.80;99.90;;;;;;5018832;28;19925;-64
2022/12/08 07:26:35;;;;;;;;;;;3.80;99.90;;;;;;5014637;28;19930;-63
2022/12/08 07:29:03;;;;;;;;;;;3.70;99.90;;;;;;5031477;28;19932;-64
2022/12/08 07:31:31;;;;;;;;;;;3.70;99.90;;;;;;5032967;28;19932;-64
2022/12/08 07:33:58;;;;;;;;;;;3.70;99.90;;;;;;5034669;28;19925;-64
2022/12/08 07:36:27;;;;;;;;;;;3.70;99.90;;;;;;5034324;28;19929;-63
2022/12/08 07:38:55;;;;;;;;;;;3.70;99.90;;;;;;5034520;28;19929;-63
2022/12/08 07:41:24;;;;;;;;;;;3.70;99.90;;;;;;5033785;28;19937;-63
2022/12/08 07:43:52;;;;;;;;;;;3.70;99.90;;;;;;5034320;28;19925;-65
2022/12/08 07:46:21;;;;;;;;;;;3.70;99.90;;;;;;5032862;28;19925;-63
2022/12/08 07:48:49;;;;;;;;;;;3.70;99.90;;;;;;5027758;28;19972;-63
2022/12/08 07:51:17;;;;;;;;;;;3.70;99.90;;;;;;5033580;28;19929;-63
2022/12/08 07:53:47;;;;;;;;;;;3.70;99.90;;;;;;5034148;28;20299;-61
2022/12/08 07:56:21;;;;;;;;;;;3.70;99.90;;;;;;5034120;28;19929;-63
2022/12/08 07:58:49;;;;;;;;;;;3.60;99.90;;;;;;5034308;28;19925;-63
2022/12/08 08:01:21;;;;;;;;;;;3.60;99.90;;;;;;5032970;28;19979;-63
2022/12/08 08:03:49;;;;;;;;;;;3.70;99.90;;;;;;5034257;28;19975;-63
2022/12/08 08:06:16;;;;;;;;;;;3.60;99.90;;;;;;5033637;28;19932;-63
2022/12/08 08:08:44;;;;;;;;;;;3.60;99.90;;;;;;5034184;28;19925;-63
2022/12/08 08:11:13;;;;;;;;;;;3.70;99.90;;;;;;5033352;28;19925;-63
2022/12/08 08:13:48;;;;;;;;;;;3.70;99.90;;;;;;5033791;28;19925;-63
2022/12/08 08:16:17;;;;;;;;;;;3.70;99.90;;;;;;5032600;28;19933;-62
2022/12/08 08:18:46;;;;;;;;;;;3.70;99.90;;;;;;5026719;28;19951;-63
2022/12/08 08:21:14;;;;;;;;;;;3.70;99.90;;;;;;5033070;28;20021;-63
2022/12/08 08:24:02;;;;;;;;;;;3.70;99.90;;;;;;5033831;28;19932;-63
2022/12/08 08:26:31;;;;;;;;;;;3.80;99.90;;;;;;5033075;28;19973;-63
2022/12/08 08:28:59;;;;;;;;;;;3.80;99.90;;;;;;5033454;28;19925;-63
2022/12/08 08:31:26;;;;;;;;;;;3.90;99.90;;;;;;5032661;28;19928;-63
2022/12/08 08:33:55;;;;;;;;;;;3.90;99.90;;;;;;5033608;28;19925;-63
2022/12/08 08:36:23;;;;;;;;;;;3.80;99.90;;;;;;5032995;28;19925;-63
2022/12/08 08:38:50;;;;;;;;;;;3.90;99.90;;;;;;5033438;28;20027;-63
2022/12/08 08:41:18;;;;;;;;;;;3.90;99.90;;;;;;5032607;28;19926;-63
2022/12/08 08:43:47;;;;;;;;;;;3.90;99.90;;;;;;5032848;28;19959;-63
2022/12/08 08:46:15;;;;;;;;;;;3.90;99.90;;;;;;5032314;28;19929;-63
2022/12/08 08:48:43;;;;;;;;;;;4.00;99.90;;;;;;5025826;28;19932;-64
2022/12/08 08:51:11;;;;;;;;;;;4.10;99.90;;;;;;5032593;28;19925;-63
2022/12/08 08:53:39;;;;;;;;;;;4.10;99.90;;;;;;5025894;28;19926;-63
2022/12/08 08:56:08;;;;;;;;;;;4.10;99.90;;;;;;5032431;28;20374;-63
2022/12/08 08:58:36;;;;;;;;;;;4.10;99.90;;;;;;5033109;28;19925;-64
2022/12/08 09:01:05;;;;;;;;;;;4.10;99.90;;;;;;5032473;28;19925;-64
2022/12/08 09:03:33;;;;;;;;;;;4.10;99.90;;;;;;5033012;28;20693;-63
2022/12/08 09:06:01;;;;;;;;;;;4.20;99.90;;;;;;5032671;28;19925;-64
2022/12/08 09:08:28;;;;;;;;;;;4.20;99.90;;;;;;5032100;28;20299;-63
2022/12/08 09:10:56;;;;;;;;;;;4.20;99.90;;;;;;5032301;28;19925;-63
2022/12/08 09:13:24;;;;;;;;;;;4.20;99.90;;;;;;5032592;28;20321;-64
2022/12/08 09:15:51;;;;;;;;;;;4.10;99.90;;;;;;5032418;28;19931;-64
2022/12/08 09:18:21;;;;;;;;;;;4.20;99.90;;;;;;5024113;28;19925;-63
2022/12/08 09:20:49;;;;;;;;;;;4.20;99.90;;;;;;5031956;28;20355;-63
2022/12/08 09:23:16;;;;;;;;;;;4.20;99.90;;;;;;5027527;28;19931;-63
2022/12/08 09:25:45;;;;;;;;;;;4.10;99.90;;;;;;5012648;28;20008;-63
2022/12/08 09:28:13;;;;;;;;;;;4.10;99.90;;;;;;5012718;28;19964;-63
2022/12/08 09:30:41;;;;;;;;;;;4.20;99.90;;;;;;5011808;28;20009;-63
2022/12/08 09:33:08;;;;;;;;;;;4.20;99.90;;;;;;5012685;28;19932;-63
2022/12/08 09:35:37;;;;;;;;;;;4.20;99.90;;;;;;5019261;28;19929;-63
2022/12/08 09:38:05;;;;;;;;;;;4.20;99.90;;;;;;5031770;28;19926;-63
2022/12/08 09:40:36;;;;;;;;;;;4.20;99.90;;;;;;5031456;28;19931;-64
2022/12/08 09:43:10;;;;;;;;;;;4.30;99.90;;;;;;5032398;28;19929;-63
2022/12/08 09:45:37;;;;;;;;;;;4.30;99.90;;;;;;5031926;28;20377;-63
2022/12/08 09:48:07;;;;;;;;;;;4.40;99.90;;;;;;5023849;28;19929;-63
2022/12/08 09:50:38;;;;;;;;;;;4.40;99.90;;;;;;5031205;28;19947;-63
2022/12/08 09:53:09;;;;;;;;;;;4.40;99.90;;;;;;5032276;28;19947;-63
2022/12/08 09:55:40;;;;;;;;;;;4.40;99.90;;;;;;5032028;28;19925;-64
2022/12/08 09:58:14;;;;;;;;;;;4.50;99.90;;;;;;5031897;28;19943;-64
2022/12/08 10:00:42;;;;;;;;;;;4.50;99.90;;;;;;5030988;28;20295;-64
2022/12/08 10:03:11;;;;;;;;;;;4.50;99.90;;;;;;5031964;28;20032;-64
2022/12/08 10:05:46;;;;;;;;;;;4.50;99.90;;;;;;5031891;28;19932;-63
2022/12/08 10:08:18;;;;;;;;;;;4.50;99.90;;;;;;5031423;28;19931;-64
2022/12/08 10:10:47;;;;;;;;;;;4.60;99.90;;;;;;5031004;28;19925;-63
2022/12/08 10:13:18;;;;;;;;;;;4.60;99.90;;;;;;5031672;28;20458;-64
2022/12/08 10:15:49;;;;;;;;;;;4.70;99.90;;;;;;5031620;28;20366;-63
2022/12/08 10:18:18;;;;;;;;;;;4.70;99.90;;;;;;5019783;28;20498;-64
2022/12/08 10:20:47;;;;;;;;;;;4.70;99.90;;;;;;5011129;28;19929;-63
2022/12/08 10:23:21;;;;;;;;;;;4.70;99.90;;;;;;5011976;28;19925;-64
2022/12/08 10:25:51;;;;;;;;;;;4.70;99.90;;;;;;5011975;28;19929;-63
2022/12/08 10:28:19;;;;;;;;;;;4.80;99.90;;;;;;5050418;22;19925;-65
2022/12/08 10:30:46;;;;;;;;;;;4.90;99.90;;;;;;5030254;28;20020;-66
2022/12/08 10:33:16;;;;;;;;;;;4.90;99.90;;;;;;5031751;28;19929;-65
2022/12/08 10:35:44;;;;;;;;;;;4.90;99.90;;;;;;5031533;28;19926;-65
2022/12/08 10:38:18;;;;;;;;;;;4.90;99.90;;;;;;5022197;28;20310;-65
2022/12/08 10:40:46;;;;;;;;;;;5.00;99.90;;;;;;5026102;28;19924;-66
2022/12/08 10:43:15;;;;;;;;;;;5.10;99.90;;;;;;5031461;28;19960;-66
2022/12/08 10:45:43;;;;;;;;;;;5.20;99.90;;;;;;5028678;28;19932;-65
2022/12/08 10:48:14;;;;;;;;;;;5.20;99.90;;;;;;5030940;28;19929;-65
2022/12/08 10:50:43;;;;;;;;;;;5.40;99.90;;;;;;5025264;28;20409;-66
2022/12/08 10:53:13;;;;;;;;;;;5.60;99.90;;;;;;5035430;28;19925;-66
2022/12/08 10:55:43;;;;;;;;;;;5.80;99.90;;;;;;5035409;28;20025;-65
2022/12/08 10:58:24;;;;;;;;;;;6.20;99.90;;;;;;5026730;28;20383;-66
2022/12/08 11:00:52;;;;;;;;;;;6.40;99.90;;;;;;5014538;28;19931;-65
2022/12/08 11:03:22;;;;;;;;;;;6.70;99.90;;;;;;5015385;28;19926;-65
2022/12/08 11:05:50;;;;;;;;;;;6.80;99.90;;;;;;5015481;28;19926;-66
2022/12/08 11:08:18;;;;;;;;;;;6.90;99.90;;;;;;5025050;28;20394;-65
2022/12/08 11:10:47;;;;;;;;;;;7.00;99.90;;;;;;5034219;28;19936;-65
2022/12/08 11:13:18;;;;;;;;;;;7.20;99.90;;;;;;5035091;28;20317;-66
2022/12/08 11:15:46;;;;;;;;;;;7.10;99.90;;;;;;5034735;28;20019;-65
2022/12/08 11:18:22;;;;;;;;;;;6.90;99.90;;;;;;5034486;28;19931;-65
2022/12/08 11:20:56;;;;;;;;;;;6.80;99.90;;;;;;5033845;28;20329;-66
2022/12/08 11:23:25;;;;;;;;;;;6.90;99.90;;;;;;5034976;28;19925;-65
2022/12/08 11:25:56;;;;;;;;;;;7.00;99.90;;;;;;5034901;28;19932;-65
2022/12/08 11:28:24;;;;;;;;;;;7.00;99.90;;;;;;5025518;28;19971;-66
2022/12/08 11:30:56;;;;;;;;;;;6.70;99.90;;;;;;5013929;28;19929;-65
2022/12/08 11:33:25;;;;;;;;;;;6.60;99.90;;;;;;5015201;28;20466;-65
2022/12/08 11:35:54;;;;;;;;;;;6.30;99.90;;;;;;5015093;28;19926;-65
2022/12/08 11:38:23;;;;;;;;;;;5.80;99.90;;;;;;5023148;28;20402;-65
2022/12/08 11:40:52;;;;;;;;;;;5.80;99.90;;;;;;5033575;28;19925;-66
2022/12/08 11:43:24;;;;;;;;;;;5.70;99.90;;;;;;5034530;28;19928;-65
2022/12/08 11:45:55;;;;;;;;;;;5.70;99.90;;;;;;5034386;28;19931;-66
2022/12/08 11:48:26;;;;;;;;;;;5.70;99.90;;;;;;5026351;28;19988;-66
2022/12/08 11:50:57;;;;;;;;;;;5.70;99.90;;;;;;5013703;28;19932;-65
2022/12/08 11:53:27;;;;;;;;;;;5.90;99.90;;;;;;5014543;28;20016;-65
2022/12/08 11:55:57;;;;;;;;;;;5.80;99.90;;;;;;5014707;28;20402;-65
2022/12/08 11:58:29;;;;;;;;;;;5.80;99.90;;;;;;5022866;28;19925;-65
2022/12/08 12:00:57;;;;;;;;;;;5.80;99.90;;;;;;5033071;28;20386;-65
2022/12/08 12:03:29;;;;;;;;;;;5.90;99.90;;;;;;5033740;28;20250;-65
2022/12/08 12:06:07;;;;;;;;;;;5.90;99.90;;;;;;5030059;28;19929;-65
2022/12/08 12:08:59;;;;;;;;;;;6.00;99.90;;;;;;5014306;28;19933;-65
2022/12/08 12:14:28;;;;;;;;;;;5.90;99.90;;;;;;5014112;28;19936;-66
2022/12/08 12:17:01;;;;;;;;;;;6.00;99.90;;;;;;5028028;28;19925;-65
2022/12/08 12:19:30;;;;;;;;;;;6.00;99.90;;;;;;5033686;28;19960;-65
2022/12/08 12:21:59;;;;;;;;;;;6.20;99.90;;;;;;5033427;28;19925;-65
2022/12/08 12:24:31;;;;;;;;;;;6.20;99.90;;;;;;5033749;28;20477;-65
2022/12/08 12:27:06;;;;;;;;;;;6.30;99.90;;;;;;5033710;28;19966;-65
2022/12/08 12:29:37;;;;;;;;;;;6.40;99.90;;;;;;5033305;28;20337;-66
2022/12/08 12:32:06;;;;;;;;;;;6.40;99.90;;;;;;5027822;28;19932;-66
2022/12/08 12:34:35;;;;;;;;;;;6.50;99.90;;;;;;5013786;28;19930;-65
2022/12/08 12:37:05;;;;;;;;;;;6.40;99.90;;;;;;5013448;28;19925;-65
2022/12/08 12:39:34;;;;;;;;;;;6.40;99.90;;;;;;5013294;28;19931;-66
2022/12/08 12:42:04;;;;;;;;;;;6.30;99.90;;;;;;5013261;28;19926;-64
2022/12/08 12:44:42;;;;;;;;;;;6.40;99.90;;;;;;5014272;28;19969;-64
2022/12/08 12:47:14;;;;;;;;;;;6.40;99.90;;;;;;5026602;28;19972;-65
2022/12/08 12:49:52;;;;;;;;;;;6.30;99.90;;;;;;5012998;28;20023;-66
2022/12/08 12:52:36;;;;;;;;;;;6.40;99.90;;;;;;5013606;28;19932;-67
2022/12/08 12:55:20;;;;;;;;;;;6.30;99.90;;;;;;5013385;28;20012;-67
2022/12/08 12:57:51;;;;;;;;;;;6.20;99.90;;;;;;5013220;28;20413;-67
2022/12/08 13:00:20;;;;;;;;;;;6.30;99.90;;;;;;5012506;28;20395;-67
2022/12/08 13:02:48;;;;;;;;;;;6.30;99.90;;;;;;5013109;28;19929;-66
2022/12/08 13:05:18;;;;;;;;;;;6.30;99.90;;;;;;5013137;28;19925;-66
2022/12/08 13:07:49;;;;;;;;;;;6.10;99.90;;;;;;5021714;28;19925;-66
2022/12/08 13:10:18;;;;;;;;;;;6.00;99.90;;;;;;5032088;28;20203;-66
2022/12/08 13:13:01;;;;;;;;;;;6.10;99.90;;;;;;5032489;28;19932;-66
2022/12/08 13:15:34;;;;;;;;;;;6.10;99.90;;;;;;5032500;28;19932;-66
2022/12/08 13:18:02;;;;;;;;;;;6.00;99.90;;;;;;5032597;28;19931;-67
2022/12/08 13:20:30;;;;;;;;;;;6.00;99.90;;;;;;5031994;28;19947;-64
2022/12/08 13:23:01;;;;;;;;;;;6.00;99.90;;;;;;5032077;28;19929;-65
2022/12/08 13:25:46;;;;;;;;;;;6.00;99.90;;;;;;5032575;28;20390;-65
2022/12/08 13:28:20;;;;;;;;;;;6.00;99.90;;;;;;5030686;28;19956;-64
2022/12/08 13:30:49;;;;;;;;;;;6.00;99.90;;;;;;5031134;28;19925;-64
2022/12/08 13:33:19;;;;;;;;;;;5.90;99.90;;;;;;5032235;28;19925;-66
2022/12/08 13:35:49;;;;;;;;;;;5.90;99.90;;;;;;5032697;28;19931;-67
2022/12/08 13:38:19;;;;;;;;;;;5.80;99.90;;;;;;5031929;28;20359;-66
2022/12/08 13:40:46;;;;;;;;;;;5.80;99.90;;;;;;5031723;28;19941;-66
2022/12/08 13:43:17;;;;;;;;;;;5.70;99.90;;;;;;5030492;28;19925;-66
2022/12/08 13:45:46;;;;;;;;;;;5.70;99.90;;;;;;5031976;28;19972;-66
2022/12/08 13:48:42;;;;;;;;;;;5.70;99.90;;;;;;5031525;28;19944;-67
2022/12/08 13:51:35;;;;;;;;;;;5.70;99.90;;;;;;5031636;28;20359;-66
2022/12/08 13:54:24;;;;;;;;;;;5.80;99.90;;;;;;5032425;28;20373;-66
2022/12/08 13:57:18;;;;;;;;;;;5.80;99.90;;;;;;5031869;28;19929;-67
2022/12/08 13:59:46;;;;;;;;;;;5.90;99.90;;;;;;5031264;28;20599;-66
2022/12/08 14:02:16;;;;;;;;;;;5.90;99.90;;;;;;5031680;28;19932;-66
2022/12/08 14:04:46;;;;;;;;;;;5.80;99.90;;;;;;5030850;28;19925;-67
2022/12/08 14:07:33;;;;;;;;;;;5.70;99.90;;;;;;5031974;28;19932;-66
2022/12/08 14:10:02;;;;;;;;;;;5.80;99.90;;;;;;5031181;28;19999;-66
2022/12/08 14:12:31;;;;;;;;;;;5.80;99.90;;;;;;5031606;28;19926;-67
2022/12/08 14:14:59;;;;;;;;;;;5.70;99.90;;;;;;5031643;28;19931;-66
2022/12/08 14:17:31;;;;;;;;;;;5.70;99.90;;;;;;5031570;28;20036;-66
2022/12/08 14:20:01;;;;;;;;;;;5.70;99.90;;;;;;5031220;28;20453;-66
2022/12/08 14:22:32;;;;;;;;;;;5.70;99.90;;;;;;5031680;28;20019;-67
2022/12/08 14:25:00;;;;;;;;;;;5.70;99.90;;;;;;5021568;28;19925;-65
2022/12/08 14:27:32;;;;;;;;;;;5.70;99.90;;;;;;5011611;28;20024;-65
2022/12/08 14:30:01;;;;;;;;;;;5.70;99.90;;;;;;5011459;28;20322;-65
2022/12/08 14:32:30;;;;;;;;;;;5.60;99.90;;;;;;5011808;28;19945;-66
2022/12/08 14:35:12;;;;;;;;;;;5.60;99.90;;;;;;5011830;28;20351;-65
2022/12/08 14:37:41;;;;;;;;;;;5.50;99.90;;;;;;5011527;28;19926;-66
2022/12/08 14:40:16;;;;;;;;;;;5.60;99.90;;;;;;5010992;28;19930;-66
2022/12/08 14:42:51;;;;;;;;;;;5.60;99.90;;;;;;5011690;28;19971;-65
2022/12/08 14:45:19;;;;;;;;;;;5.60;99.90;;;;;;5020109;28;19931;-65
2022/12/08 14:47:47;;;;;;;;;;;5.50;99.90;;;;;;5031433;28;19933;-65
2022/12/08 14:50:38;;;;;;;;;;;5.50;99.90;;;;;;5030730;28;19925;-65
2022/12/08 14:53:11;;;;;;;;;;;5.40;99.90;;;;;;5031575;28;19936;-65
2022/12/08 14:55:38;;;;;;;;;;;5.40;99.90;;;;;;5031462;28;19925;-66
2022/12/08 14:58:06;;;;;;;;;;;5.40;99.90;;;;;;5031133;28;19926;-65